createdAt,value
2023-04-15T00:00:00.208Z,9.48
2023-04-15T00:02:29.604Z,9.47
2023-04-15T00:04:57.445Z,9.43
2023-04-15T00:07:25.211Z,9.33
2023-04-15T00:09:55.207Z,9.28
2023-04-15T00:12:23.021Z,9.22
2023-04-15T00:14:51.147Z,9.10
2023-04-15T00:17:19.281Z,9.13
2023-04-15T00:19:48.485Z,9.14
2023-04-15T00:22:16.302Z,9.10
2023-04-15T00:24:44.170Z,9.14
2023-04-15T00:27:12.514Z,9.11
2023-04-15T00:29:40.275Z,9.15
2023-04-15T00:32:09.261Z,9.19
2023-04-15T00:34:37.304Z,9.18
2023-04-15T00:37:06.412Z,9.14
2023-04-15T00:39:34.190Z,9.11
2023-04-15T00:42:02.423Z,9.21
2023-04-15T00:44:30.172Z,9.17
2023-04-15T00:46:58.657Z,9.15
2023-04-15T00:49:27.169Z,9.10
2023-04-15T00:51:54.920Z,9.09
2023-04-15T00:54:24.100Z,9.03
2023-04-15T00:56:52.000Z,9.04
2023-04-15T00:59:19.907Z,9.02
2023-04-15T01:01:48.517Z,9.06
2023-04-15T01:04:17.299Z,8.98
2023-04-15T01:06:45.241Z,8.98
2023-04-15T01:09:13.128Z,9.04
2023-04-15T01:11:42.359Z,8.98
2023-04-15T01:14:10.852Z,9.01
2023-04-15T01:16:39.917Z,8.93
2023-04-15T01:19:09.808Z,8.93
2023-04-15T01:21:38.594Z,8.87
2023-04-15T01:24:11.031Z,8.86
2023-04-15T01:26:43.044Z,8.82
2023-04-15T01:29:12.022Z,8.85
2023-04-15T01:31:40.176Z,8.79
2023-04-15T01:34:10.413Z,8.78
2023-04-15T01:36:38.167Z,8.79
2023-04-15T01:39:06.644Z,8.80
2023-04-15T01:41:34.409Z,8.66
2023-04-15T01:44:03.586Z,8.70
2023-04-15T01:46:31.395Z,8.60
2023-04-15T01:48:59.500Z,8.69
2023-04-15T01:51:27.742Z,8.64
2023-04-15T01:53:56.898Z,8.57
2023-04-15T01:56:25.415Z,8.55
2023-04-15T01:58:53.398Z,8.53
2023-04-15T02:01:22.724Z,8.42
2023-04-15T02:03:50.713Z,8.42
2023-04-15T02:06:21.057Z,8.33
2023-04-15T02:08:48.849Z,8.26
2023-04-15T02:11:16.649Z,8.25
2023-04-15T02:13:44.556Z,8.25
2023-04-15T02:16:18.820Z,8.24
2023-04-15T02:18:48.305Z,8.19
2023-04-15T02:21:16.203Z,8.22
2023-04-15T02:23:44.092Z,8.19
2023-04-15T02:26:11.926Z,8.04
2023-04-15T02:28:39.714Z,8.11
2023-04-15T02:31:08.235Z,8.06
2023-04-15T02:33:37.010Z,8.08
2023-04-15T02:36:07.576Z,8.03
2023-04-15T02:38:35.373Z,7.96
2023-04-15T02:41:03.260Z,7.94
2023-04-15T02:43:31.074Z,7.91
2023-04-15T02:45:58.973Z,7.86
2023-04-15T02:48:27.031Z,7.79
2023-04-15T02:50:54.801Z,7.74
2023-04-15T02:53:23.956Z,7.74
2023-04-15T02:55:51.687Z,7.72
2023-04-15T02:58:19.624Z,7.66
2023-04-15T03:00:47.424Z,7.66
2023-04-15T03:03:15.647Z,7.64
2023-04-15T03:06:13.698Z,7.42
2023-04-15T03:08:45.917Z,7.34
2023-04-15T03:12:02.129Z,7.44
2023-04-15T03:14:29.898Z,7.35
2023-04-15T03:17:44.660Z,7.33
2023-04-15T03:20:12.521Z,7.34
2023-04-15T03:22:41.965Z,7.36
2023-04-15T03:25:11.475Z,7.32
2023-04-15T03:27:57.171Z,7.30
2023-04-15T03:30:38.572Z,7.30
2023-04-15T03:33:34.705Z,7.28
2023-04-15T03:36:02.490Z,7.09
2023-04-15T03:38:30.282Z,7.17
2023-04-15T03:40:59.597Z,7.15
2023-04-15T03:43:49.825Z,6.97
2023-04-15T03:46:17.766Z,6.97
2023-04-15T03:48:46.503Z,6.94
2023-04-15T03:51:14.267Z,7.05
2023-04-15T03:53:42.108Z,6.99
2023-04-15T03:56:11.364Z,6.95
2023-04-15T03:58:46.732Z,6.91
2023-04-15T04:01:15.012Z,6.90
2023-04-15T04:03:45.812Z,6.83
2023-04-15T04:06:13.844Z,6.83
2023-04-15T04:08:41.680Z,6.82
2023-04-15T04:11:10.939Z,6.82
2023-04-15T04:13:38.826Z,6.84
2023-04-15T04:16:07.345Z,6.79
2023-04-15T04:18:35.406Z,6.77
2023-04-15T04:21:03.409Z,6.61
2023-04-15T04:23:31.443Z,6.68
2023-04-15T04:25:59.258Z,6.66
2023-04-15T04:28:28.554Z,6.67
2023-04-15T04:30:57.032Z,6.66
2023-04-15T04:33:24.894Z,6.66
2023-04-15T04:35:55.616Z,6.62
2023-04-15T04:38:23.418Z,6.62
2023-04-15T04:40:51.295Z,6.58
2023-04-15T04:43:19.262Z,6.59
2023-04-15T04:45:48.471Z,6.56
2023-04-15T04:48:17.038Z,6.55
2023-04-15T04:50:47.026Z,6.57
2023-04-15T04:53:14.863Z,6.57
2023-04-15T04:55:42.770Z,6.55
2023-04-15T04:58:10.682Z,6.54
2023-04-15T05:00:38.965Z,6.64
2023-04-15T05:03:08.470Z,6.65
2023-04-15T05:05:37.017Z,6.66
2023-04-15T05:08:04.920Z,6.68
2023-04-15T05:10:32.812Z,6.70
2023-04-15T05:13:00.658Z,6.68
2023-04-15T05:15:28.483Z,6.66
2023-04-15T05:17:56.433Z,6.60
2023-04-15T05:20:25.936Z,6.65
2023-04-15T05:22:53.814Z,6.68
2023-04-15T05:25:21.608Z,6.65
2023-04-15T05:27:49.365Z,6.62
2023-04-15T05:30:17.132Z,6.62
2023-04-15T05:32:45.021Z,6.62
2023-04-15T05:35:12.857Z,6.61
2023-04-15T05:37:42.066Z,6.64
2023-04-15T05:40:10.658Z,6.57
2023-04-15T05:42:38.740Z,6.63
2023-04-15T05:45:09.319Z,6.64
2023-04-15T05:47:37.380Z,6.61
2023-04-15T05:50:06.676Z,6.61
2023-04-15T05:52:34.618Z,6.55
2023-04-15T05:55:03.885Z,6.56
2023-04-15T05:57:31.663Z,6.56
2023-04-15T05:59:59.488Z,6.53
2023-04-15T06:02:28.019Z,6.50
2023-04-15T06:04:55.991Z,6.56
2023-04-15T06:07:23.874Z,6.66
2023-04-15T06:09:51.676Z,6.68
2023-04-15T06:12:20.826Z,6.70
2023-04-15T06:14:48.646Z,6.69
2023-04-15T06:17:18.583Z,6.79
2023-04-15T06:19:46.437Z,6.82
2023-04-15T06:22:14.259Z,6.89
2023-04-15T06:24:42.151Z,6.90
2023-04-15T06:27:09.950Z,6.97
2023-04-15T06:29:39.283Z,7.09
2023-04-15T06:32:07.792Z,7.15
2023-04-15T06:34:35.615Z,7.23
2023-04-15T06:37:05.100Z,7.37
2023-04-15T06:39:34.181Z,7.44
2023-04-15T06:42:02.057Z,7.61
2023-04-15T06:44:32.635Z,7.74
2023-04-15T06:47:03.046Z,7.90
2023-04-15T06:49:30.970Z,8.06
2023-04-15T06:51:58.739Z,8.22
2023-04-15T06:54:26.625Z,8.29
2023-04-15T06:56:54.536Z,8.44
2023-04-15T06:59:25.301Z,8.56
2023-04-15T07:01:55.299Z,8.64
2023-04-15T07:04:24.632Z,8.68
2023-04-15T07:06:52.504Z,8.75
2023-04-15T07:09:20.705Z,8.89
2023-04-15T07:11:48.863Z,9.10
2023-04-15T07:14:16.742Z,9.15
2023-04-15T07:16:44.573Z,9.32
2023-04-15T07:19:12.769Z,9.39
2023-04-15T07:21:42.344Z,9.54
2023-04-15T07:24:10.581Z,9.63
2023-04-15T07:26:40.517Z,9.67
2023-04-15T07:29:08.319Z,9.94
2023-04-15T07:31:36.853Z,10.05
2023-04-15T07:34:05.186Z,10.10
2023-04-15T07:36:33.028Z,10.31
2023-04-15T07:39:03.962Z,10.43
2023-04-15T07:41:32.111Z,10.49
2023-04-15T07:44:01.342Z,10.60
2023-04-15T07:46:29.347Z,10.71
2023-04-15T07:49:00.311Z,10.64
2023-04-15T07:51:29.331Z,10.77
2023-04-15T07:54:00.782Z,10.92
2023-04-15T07:56:32.637Z,11.00
2023-04-15T07:59:02.345Z,11.06
2023-04-15T08:01:30.682Z,11.21
2023-04-15T08:03:58.893Z,11.23
2023-04-15T08:06:27.411Z,11.30
2023-04-15T08:08:55.666Z,11.47
2023-04-15T08:11:24.550Z,11.43
2023-04-15T08:13:53.744Z,11.52
2023-04-15T08:16:26.888Z,11.75
2023-04-15T08:18:56.452Z,11.88
2023-04-15T08:21:25.044Z,12.00
2023-04-15T08:24:02.041Z,12.13
2023-04-15T08:26:29.877Z,12.07
2023-04-15T08:28:59.589Z,12.19
2023-04-15T08:31:31.642Z,12.25
2023-04-15T08:34:01.819Z,12.18
2023-04-15T08:36:29.645Z,12.22
2023-04-15T08:38:57.515Z,12.36
2023-04-15T08:41:26.477Z,12.47
2023-04-15T08:43:57.937Z,12.49
2023-04-15T08:46:45.360Z,12.41
2023-04-15T08:49:13.704Z,12.52
2023-04-15T08:51:42.392Z,12.76
2023-04-15T08:54:10.631Z,12.74
2023-04-15T08:56:40.806Z,12.78
2023-04-15T08:59:12.529Z,12.70
2023-04-15T09:01:42.163Z,12.73
2023-04-15T09:04:10.475Z,12.95
2023-04-15T09:06:38.315Z,13.24
2023-04-15T09:09:06.111Z,13.40
2023-04-15T09:11:36.279Z,13.37
2023-04-15T09:14:04.033Z,13.37
2023-04-15T09:16:32.585Z,13.35
2023-04-15T09:19:02.153Z,13.57
2023-04-15T09:21:33.902Z,13.49
2023-04-15T09:24:05.879Z,13.50
2023-04-15T09:26:40.287Z,13.55
2023-04-15T09:29:09.747Z,13.54
2023-04-15T09:31:38.543Z,13.52
2023-04-15T09:34:26.205Z,13.58
2023-04-15T09:36:56.883Z,13.67
2023-04-15T09:39:25.102Z,13.82
2023-04-15T09:42:08.883Z,13.76
2023-04-15T09:44:36.722Z,13.78
2023-04-15T09:47:04.505Z,13.91
2023-04-15T09:49:38.713Z,14.07
2023-04-15T09:52:06.842Z,14.20
2023-04-15T09:54:36.447Z,14.33
2023-04-15T09:57:09.057Z,14.34
2023-04-15T09:59:42.190Z,14.28
2023-04-15T10:02:11.551Z,14.18
2023-04-15T10:04:42.336Z,14.22
2023-04-15T10:07:15.193Z,14.36
2023-04-15T10:09:47.407Z,14.35
2023-04-15T10:12:18.646Z,14.53
2023-04-15T10:14:53.431Z,14.58
2023-04-15T10:17:24.188Z,14.56
2023-04-15T10:19:58.101Z,14.60
2023-04-15T10:22:27.251Z,14.80
2023-04-15T10:24:55.729Z,14.80
2023-04-15T10:27:24.007Z,14.65
2023-04-15T10:29:52.614Z,14.62
2023-04-15T10:32:28.701Z,14.72
2023-04-15T10:34:58.528Z,14.62
2023-04-15T10:37:36.056Z,14.92
2023-04-15T10:40:26.086Z,15.02
2023-04-15T10:42:54.547Z,14.77
2023-04-15T10:45:22.415Z,14.76
2023-04-15T10:47:55.151Z,14.95
2023-04-15T10:50:27.838Z,15.08
2023-04-15T10:52:58.594Z,15.32
2023-04-15T10:55:34.093Z,15.03
2023-04-15T10:58:03.283Z,14.82
2023-04-15T11:00:32.574Z,14.94
2023-04-15T11:03:06.284Z,14.67
2023-04-15T11:06:04.037Z,14.86
2023-04-15T11:09:07.975Z,14.95
2023-04-15T11:12:12.171Z,14.71
2023-04-15T11:14:43.739Z,14.66
2023-04-15T11:17:16.336Z,14.20
2023-04-15T11:19:44.663Z,14.25
2023-04-15T11:22:13.068Z,14.01
2023-04-15T11:24:50.660Z,14.07
2023-04-15T11:27:26.554Z,13.83
2023-04-15T11:29:54.464Z,13.70
2023-04-15T11:32:23.126Z,13.75
2023-04-15T11:34:52.921Z,13.75
2023-04-15T11:37:29.678Z,13.95
2023-04-15T11:39:58.952Z,14.07
2023-04-15T11:42:31.572Z,14.05
2023-04-15T11:45:15.756Z,14.29
2023-04-15T11:47:44.554Z,14.16
2023-04-15T11:50:16.641Z,14.10
2023-04-15T11:52:54.168Z,14.06
2023-04-15T11:55:24.987Z,14.18
2023-04-15T11:58:08.221Z,14.35
2023-04-15T12:00:41.150Z,14.35
2023-04-15T12:03:16.127Z,14.31
2023-04-15T12:06:06.109Z,14.36
2023-04-15T12:08:50.102Z,14.53
2023-04-15T12:11:21.640Z,14.40
2023-04-15T12:13:51.498Z,14.43
2023-04-15T12:16:24.730Z,14.49
2023-04-15T12:18:53.440Z,14.72
2023-04-15T12:21:21.815Z,14.71
2023-04-15T12:23:50.904Z,14.70
2023-04-15T12:26:42.394Z,14.94
2023-04-15T12:29:11.635Z,15.10
2023-04-15T12:31:48.496Z,15.02
2023-04-15T12:34:18.953Z,15.16
2023-04-15T12:36:46.914Z,15.07
2023-04-15T12:39:14.911Z,15.03
2023-04-15T12:41:44.924Z,14.99
2023-04-15T12:44:12.761Z,15.04
2023-04-15T12:46:41.536Z,14.92
2023-04-15T12:49:14.678Z,15.12
2023-04-15T12:51:44.989Z,14.97
2023-04-15T12:54:16.697Z,14.78
2023-04-15T12:56:46.439Z,14.86
2023-04-15T12:59:14.278Z,14.89
2023-04-15T13:01:44.053Z,14.73
2023-04-15T13:04:12.327Z,14.76
2023-04-15T13:06:40.257Z,14.73
2023-04-15T13:09:08.181Z,14.71
2023-04-15T13:11:36.532Z,14.75
2023-04-15T13:14:07.004Z,14.82
2023-04-15T13:16:35.985Z,15.03
2023-04-15T13:19:08.051Z,14.99
2023-04-15T13:21:36.511Z,14.84
2023-04-15T13:24:07.269Z,14.41
2023-04-15T13:26:36.049Z,14.47
2023-04-15T13:29:05.187Z,14.17
2023-04-15T13:31:33.025Z,14.28
2023-04-15T13:34:00.936Z,14.20
2023-04-15T13:36:28.777Z,14.09
2023-04-15T13:38:57.005Z,14.21
2023-04-15T13:41:24.820Z,13.89
2023-04-15T13:43:54.329Z,13.96
2023-04-15T13:46:23.573Z,13.95
2023-04-15T13:48:51.393Z,13.89
2023-04-15T13:51:19.251Z,13.83
2023-04-15T13:53:47.080Z,14.09
2023-04-15T13:56:14.905Z,13.91
2023-04-15T13:58:42.777Z,14.08
2023-04-15T14:01:10.895Z,14.11
2023-04-15T14:03:40.408Z,13.88
2023-04-15T14:06:15.729Z,14.07
2023-04-15T14:08:43.785Z,14.34
2023-04-15T14:11:11.764Z,14.26
2023-04-15T14:13:40.708Z,14.70
2023-04-15T14:16:13.278Z,14.80
2023-04-15T14:18:42.700Z,14.62
2023-04-15T14:21:10.494Z,14.52
2023-04-15T14:23:38.382Z,14.58
2023-04-15T14:26:06.560Z,14.75
2023-04-15T14:28:34.391Z,14.38
2023-04-15T14:31:02.574Z,14.37
2023-04-15T14:33:30.441Z,14.33
2023-04-15T14:35:59.627Z,14.10
2023-04-15T14:38:27.730Z,14.27
2023-04-15T14:40:55.499Z,14.37
2023-04-15T14:43:23.249Z,14.49
2023-04-15T14:45:51.993Z,14.44
2023-04-15T14:48:23.024Z,14.12
2023-04-15T14:50:50.865Z,13.95
2023-04-15T14:53:21.683Z,13.76
2023-04-15T14:55:49.634Z,13.68
2023-04-15T14:58:17.614Z,13.42
2023-04-15T15:00:45.504Z,13.48
2023-04-15T15:03:14.756Z,13.37
2023-04-15T15:05:43.632Z,13.29
2023-04-15T15:08:11.849Z,13.35
2023-04-15T15:10:48.692Z,13.20
2023-04-15T15:13:21.054Z,13.04
2023-04-15T15:15:50.225Z,12.95
2023-04-15T15:18:21.562Z,12.82
2023-04-15T15:20:49.505Z,12.87
2023-04-15T15:23:17.521Z,12.96
2023-04-15T15:25:47.298Z,12.86
2023-04-15T15:28:15.319Z,12.79
2023-04-15T15:30:43.214Z,13.01
2023-04-15T15:33:13.922Z,13.11
2023-04-15T15:35:42.073Z,13.20
2023-04-15T15:38:12.261Z,13.12
2023-04-15T15:40:40.162Z,13.06
2023-04-15T15:43:09.422Z,13.11
2023-04-15T15:45:37.246Z,13.07
2023-04-15T15:48:06.574Z,13.06
2023-04-15T15:50:35.065Z,12.83
2023-04-15T15:53:02.909Z,12.91
2023-04-15T15:55:30.707Z,12.95
2023-04-15T15:57:58.462Z,12.68
2023-04-15T16:00:27.623Z,12.50
2023-04-15T16:03:06.591Z,12.52
2023-04-15T16:05:34.829Z,12.62
2023-04-15T16:08:02.635Z,12.59
2023-04-15T16:10:30.675Z,12.49
2023-04-15T16:12:58.493Z,12.49
2023-04-15T16:15:27.655Z,12.27
2023-04-15T16:17:55.526Z,12.08
2023-04-15T16:20:23.431Z,11.96
2023-04-15T16:22:51.273Z,12.12
2023-04-15T16:25:19.582Z,12.15
2023-04-15T16:28:00.758Z,12.08
2023-04-15T16:30:30.513Z,11.78
2023-04-15T16:32:58.439Z,11.80
2023-04-15T16:35:26.277Z,11.76
2023-04-15T16:37:54.002Z,11.61
2023-04-15T16:40:22.055Z,11.59
2023-04-15T16:42:50.637Z,11.60
2023-04-15T16:45:20.537Z,11.25
2023-04-15T16:47:49.788Z,11.20
2023-04-15T16:50:17.844Z,11.18
2023-04-15T16:52:45.666Z,11.15
2023-04-15T16:55:13.473Z,11.30
2023-04-15T16:58:02.968Z,11.40
2023-04-15T17:00:29.697Z,11.54
2023-04-15T17:02:59.066Z,11.46
2023-04-15T17:05:27.990Z,11.60
2023-04-15T17:07:55.934Z,11.64
2023-04-15T17:10:23.894Z,11.62
2023-04-15T17:12:52.623Z,11.29
2023-04-15T17:15:21.415Z,11.23
2023-04-15T17:17:49.269Z,11.04
2023-04-15T17:20:18.662Z,10.99
2023-04-15T17:22:46.620Z,11.03
2023-04-15T17:25:14.746Z,10.89
2023-04-15T17:27:42.725Z,10.88
2023-04-15T17:30:11.714Z,10.78
2023-04-15T17:32:40.140Z,10.82
2023-04-15T17:35:09.178Z,10.80
2023-04-15T17:37:38.488Z,10.76
2023-04-15T17:40:08.768Z,10.78
2023-04-15T17:42:36.853Z,10.67
2023-04-15T17:45:04.953Z,10.68
2023-04-15T17:47:33.018Z,10.56
2023-04-15T17:50:00.881Z,10.58
2023-04-15T17:52:28.937Z,10.46
2023-04-15T17:54:58.032Z,10.30
2023-04-15T17:57:26.228Z,10.14
2023-04-15T17:59:54.101Z,10.29
2023-04-15T18:02:21.970Z,10.42
2023-04-15T18:04:49.975Z,10.58
2023-04-15T18:07:18.084Z,10.53
2023-04-15T18:09:46.214Z,10.61
2023-04-15T18:12:15.330Z,10.44
2023-04-15T18:15:09.726Z,10.25
2023-04-15T18:17:53.130Z,10.04
2023-04-15T18:20:32.392Z,9.94
2023-04-15T18:23:19.734Z,9.87
2023-04-15T18:25:51.983Z,9.93
2023-04-15T18:28:39.259Z,9.74
2023-04-15T18:31:24.335Z,9.90
2023-04-15T18:33:52.202Z,9.65
2023-04-15T18:36:20.328Z,9.50
2023-04-15T18:38:48.120Z,9.37
2023-04-15T18:41:15.997Z,9.28
2023-04-15T18:43:45.160Z,9.25
2023-04-15T18:46:13.767Z,9.30
2023-04-15T18:48:41.848Z,9.15
2023-04-15T18:51:09.796Z,9.21
2023-04-15T18:53:37.582Z,9.33
2023-04-15T18:56:05.595Z,9.27
2023-04-15T18:59:09.991Z,9.29
2023-04-15T19:01:25.490Z,9.14
2023-04-15T19:03:53.474Z,9.09
2023-04-15T19:06:22.296Z,9.05
2023-04-15T19:08:50.111Z,8.80
2023-04-15T19:11:17.904Z,8.83
2023-04-15T19:13:46.269Z,8.89
2023-04-15T19:16:14.351Z,8.69
2023-04-15T19:18:46.949Z,8.49
2023-04-15T19:21:14.879Z,8.56
2023-04-15T19:23:43.847Z,8.41
2023-04-15T19:26:13.062Z,8.21
2023-04-15T19:28:41.325Z,8.19
2023-04-15T19:31:09.934Z,8.27
2023-04-15T19:33:37.931Z,8.38
2023-04-15T19:36:08.462Z,8.42
2023-04-15T19:38:37.340Z,8.34
2023-04-15T19:41:05.921Z,8.39
2023-04-15T19:43:34.508Z,8.48
2023-04-15T19:46:02.909Z,8.45
2023-04-15T19:48:30.903Z,8.55
2023-04-15T19:50:59.837Z,8.52
2023-04-15T19:53:29.156Z,8.50
2023-04-15T19:55:58.775Z,8.48
2023-04-15T19:58:26.660Z,8.55
2023-04-15T20:00:54.538Z,8.56
2023-04-15T20:03:22.578Z,8.28
2023-04-15T20:05:50.639Z,8.35
2023-04-15T20:08:18.503Z,8.28
2023-04-15T20:10:47.739Z,8.00
2023-04-15T20:13:16.282Z,8.02
2023-04-15T20:15:44.921Z,7.99
2023-04-15T20:18:12.744Z,7.98
2023-04-15T20:20:41.476Z,8.06
2023-04-15T20:23:09.421Z,8.00
2023-04-15T20:25:37.248Z,8.06
2023-04-15T20:28:06.485Z,8.11
2023-04-15T20:30:34.498Z,8.06
2023-04-15T20:33:07.552Z,7.94
2023-04-15T20:35:35.466Z,7.90
2023-04-15T20:38:04.590Z,7.80
2023-04-15T20:40:33.665Z,7.94
2023-04-15T20:43:04.685Z,7.81
2023-04-15T20:45:34.340Z,7.93
2023-04-15T20:48:02.691Z,7.99
2023-04-15T20:50:30.790Z,7.81
2023-04-15T20:52:58.816Z,7.93
2023-04-15T20:55:28.324Z,7.74
2023-04-15T20:57:58.373Z,7.70
2023-04-15T21:00:26.202Z,7.95
2023-04-15T21:02:57.878Z,7.92
2023-04-15T21:05:25.836Z,8.03
2023-04-15T21:07:54.497Z,8.05
2023-04-15T21:10:22.586Z,8.14
2023-04-15T21:12:50.549Z,8.09
2023-04-15T21:15:18.591Z,7.98
2023-04-15T21:17:46.449Z,7.94
2023-04-15T21:20:18.925Z,7.98
2023-04-15T21:22:46.977Z,7.82
2023-04-15T21:25:15.129Z,8.15
2023-04-15T21:27:43.324Z,8.31
2023-04-15T21:30:12.745Z,8.23
2023-04-15T21:32:43.333Z,8.11
2023-04-15T21:35:11.382Z,8.11
2023-04-15T21:37:43.368Z,8.12
2023-04-15T21:40:11.811Z,8.06
2023-04-15T21:42:39.817Z,8.01
2023-04-15T21:45:08.895Z,7.98
2023-04-15T21:48:06.776Z,8.18
2023-04-15T21:50:25.161Z,8.08
2023-04-15T21:52:54.548Z,8.11
2023-04-15T21:55:25.739Z,8.13
2023-04-15T21:57:53.928Z,7.94
2023-04-15T22:00:23.188Z,8.03
2023-04-15T22:02:51.267Z,8.11
2023-04-15T22:05:19.549Z,8.03
2023-04-15T22:07:50.704Z,8.19
2023-04-15T22:10:23.056Z,8.03
2023-04-15T22:12:51.156Z,7.97
2023-04-15T22:15:19.324Z,7.93
2023-04-15T22:17:47.565Z,8.13
2023-04-15T22:20:15.737Z,8.26
2023-04-15T22:22:44.843Z,8.14
2023-04-15T22:25:13.148Z,8.02
2023-04-15T22:27:42.875Z,8.21
2023-04-15T22:30:11.885Z,8.05
2023-04-15T22:32:40.182Z,8.01
2023-04-15T22:35:11.195Z,8.00
2023-04-15T22:37:42.334Z,8.19
2023-04-15T22:40:11.413Z,8.15
2023-04-15T22:42:39.517Z,8.27
2023-04-15T22:45:10.819Z,8.23
2023-04-15T22:47:39.120Z,8.32
2023-04-15T22:50:08.650Z,8.34
2023-04-15T22:52:36.796Z,8.22
2023-04-15T22:55:05.493Z,8.30
2023-04-15T22:57:33.657Z,8.53
2023-04-15T23:00:01.662Z,8.43
2023-04-15T23:02:31.195Z,8.32
2023-04-15T23:04:59.226Z,8.44
2023-04-15T23:07:29.638Z,8.31
2023-04-15T23:09:58.151Z,8.50
2023-04-15T23:12:26.212Z,8.43
2023-04-15T23:14:54.147Z,8.22
2023-04-15T23:17:22.074Z,8.22
2023-04-15T23:19:51.718Z,8.42
2023-04-15T23:22:20.107Z,8.37
2023-04-15T23:24:48.093Z,8.40
2023-04-15T23:27:17.693Z,8.43
2023-04-15T23:29:46.110Z,8.48
2023-04-15T23:32:13.982Z,8.44
2023-04-15T23:34:41.791Z,8.42
2023-04-15T23:37:11.431Z,8.44
2023-04-15T23:39:39.250Z,8.33
2023-04-15T23:42:07.344Z,8.30
2023-04-15T23:44:35.114Z,8.27
2023-04-15T23:47:02.891Z,8.31
2023-04-15T23:49:30.600Z,8.25
2023-04-15T23:51:58.485Z,8.24
2023-04-15T23:54:27.592Z,8.21
2023-04-15T23:56:55.614Z,8.09
2023-04-15T23:59:23.365Z,8.20
